sensor_id;sensor_type;location;lat;lon;timestamp;P1;durP1;ratioP1;P2;durP2;ratioP2
20431;SDS011;10375;49.136;10.366;2023-05-16T00:01:02;9.70;;;7.32;;
20431;SDS011;10375;49.136;10.366;2023-05-16T00:03:30;11.35;;;8.18;;
20431;SDS011;10375;49.136;10.366;2023-05-16T00:05:58;10.88;;;8.68;;
20431;SDS011;10375;49.136;10.366;2023-05-16T00:08:37;9.13;;;7.55;;
20431;SDS011;10375;49.136;10.366;2023-05-16T00:11:04;9.60;;;8.05;;
20431;SDS011;10375;49.136;10.366;2023-05-16T00:13:31;9.43;;;8.07;;
20431;SDS011;10375;49.136;10.366;2023-05-16T00:15:58;10.35;;;8.45;;
20431;SDS011;10375;49.136;10.366;2023-05-16T00:18:28;11.38;;;7.25;;
20431;SDS011;10375;49.136;10.366;2023-05-16T00:20:55;11.68;;;7.13;;
20431;SDS011;10375;49.136;10.366;2023-05-16T00:23:22;10.60;;;8.55;;
20431;SDS011;10375;49.136;10.366;2023-05-16T00:25:50;12.80;;;9.75;;
20431;SDS011;10375;49.136;10.366;2023-05-16T00:28:17;10.27;;;8.98;;
20431;SDS011;10375;49.136;10.366;2023-05-16T00:30:44;12.63;;;8.73;;
20431;SDS011;10375;49.136;10.366;2023-05-16T00:33:11;11.65;;;8.55;;
20431;SDS011;10375;49.136;10.366;2023-05-16T00:35:38;10.50;;;8.50;;
20431;SDS011;10375;49.136;10.366;2023-05-16T00:38:06;11.27;;;8.45;;
20431;SDS011;10375;49.136;10.366;2023-05-16T00:40:33;11.00;;;8.85;;
20431;SDS011;10375;49.136;10.366;2023-05-16T00:43:00;9.88;;;8.32;;
20431;SDS011;10375;49.136;10.366;2023-05-16T00:45:27;12.25;;;7.40;;
20431;SDS011;10375;49.136;10.366;2023-05-16T00:47:54;9.23;;;7.97;;
20431;SDS011;10375;49.136;10.366;2023-05-16T00:50:21;9.77;;;8.18;;
20431;SDS011;10375;49.136;10.366;2023-05-16T00:52:49;10.63;;;8.93;;
20431;SDS011;10375;49.136;10.366;2023-05-16T00:55:16;11.15;;;9.38;;
20431;SDS011;10375;49.136;10.366;2023-05-16T00:57:43;10.80;;;8.73;;
20431;SDS011;10375;49.136;10.366;2023-05-16T01:00:10;11.88;;;9.50;;
20431;SDS011;10375;49.136;10.366;2023-05-16T01:02:40;12.63;;;9.02;;
20431;SDS011;10375;49.136;10.366;2023-05-16T01:05:08;10.57;;;8.30;;
20431;SDS011;10375;49.136;10.366;2023-05-16T01:07:35;8.05;;;6.75;;
20431;SDS011;10375;49.136;10.366;2023-05-16T01:10:03;8.48;;;7.60;;
20431;SDS011;10375;49.136;10.366;2023-05-16T01:25:56;11.48;;;9.23;;
20431;SDS011;10375;49.136;10.366;2023-05-16T01:28:43;10.40;;;8.18;;
20431;SDS011;10375;49.136;10.366;2023-05-16T01:31:11;8.77;;;7.28;;
20431;SDS011;10375;49.136;10.366;2023-05-16T01:33:39;9.75;;;8.30;;
20431;SDS011;10375;49.136;10.366;2023-05-16T01:36:11;13.85;;;8.50;;
20431;SDS011;10375;49.136;10.366;2023-05-16T01:39:06;10.30;;;8.43;;
20431;SDS011;10375;49.136;10.366;2023-05-16T01:42:07;9.85;;;8.63;;
20431;SDS011;10375;49.136;10.366;2023-05-16T01:44:44;9.13;;;8.05;;
20431;SDS011;10375;49.136;10.366;2023-05-16T01:47:18;16.75;;;8.95;;
20431;SDS011;10375;49.136;10.366;2023-05-16T01:49:57;14.23;;;8.45;;
20431;SDS011;10375;49.136;10.366;2023-05-16T01:57:58;11.30;;;9.43;;
20431;SDS011;10375;49.136;10.366;2023-05-16T02:00:28;14.05;;;9.15;;
20431;SDS011;10375;49.136;10.366;2023-05-16T02:02:57;18.27;;;9.23;;
20431;SDS011;10375;49.136;10.366;2023-05-16T02:05:24;10.50;;;8.88;;
20431;SDS011;10375;49.136;10.366;2023-05-16T02:07:51;10.98;;;8.18;;
20431;SDS011;10375;49.136;10.366;2023-05-16T02:10:19;10.90;;;8.95;;
20431;SDS011;10375;49.136;10.366;2023-05-16T02:12:46;11.13;;;8.20;;
20431;SDS011;10375;49.136;10.366;2023-05-16T02:15:13;10.55;;;8.30;;
20431;SDS011;10375;49.136;10.366;2023-05-16T02:17:40;11.18;;;7.05;;
20431;SDS011;10375;49.136;10.366;2023-05-16T02:20:08;10.10;;;7.32;;
20431;SDS011;10375;49.136;10.366;2023-05-16T02:22:36;10.82;;;7.82;;
20431;SDS011;10375;49.136;10.366;2023-05-16T02:25:08;14.60;;;8.88;;
20431;SDS011;10375;49.136;10.366;2023-05-16T02:27:35;13.68;;;8.50;;
20431;SDS011;10375;49.136;10.366;2023-05-16T02:30:02;9.85;;;8.30;;
20431;SDS011;10375;49.136;10.366;2023-05-16T02:32:31;11.47;;;8.63;;
20431;SDS011;10375;49.136;10.366;2023-05-16T02:34:59;12.55;;;8.18;;
20431;SDS011;10375;49.136;10.366;2023-05-16T02:37:26;13.55;;;8.35;;
20431;SDS011;10375;49.136;10.366;2023-05-16T02:39:53;16.23;;;10.27;;
20431;SDS011;10375;49.136;10.366;2023-05-16T02:42:20;13.77;;;9.35;;
20431;SDS011;10375;49.136;10.366;2023-05-16T02:44:47;12.23;;;9.10;;
20431;SDS011;10375;49.136;10.366;2023-05-16T02:47:15;11.32;;;8.75;;
20431;SDS011;10375;49.136;10.366;2023-05-16T02:49:42;13.02;;;9.73;;
20431;SDS011;10375;49.136;10.366;2023-05-16T02:52:09;12.90;;;9.88;;
20431;SDS011;10375;49.136;10.366;2023-05-16T02:54:37;15.13;;;11.37;;
20431;SDS011;10375;49.136;10.366;2023-05-16T02:57:04;11.30;;;8.95;;
20431;SDS011;10375;49.136;10.366;2023-05-16T02:59:31;11.32;;;9.65;;
20431;SDS011;10375;49.136;10.366;2023-05-16T03:01:59;13.77;;;9.70;;
20431;SDS011;10375;49.136;10.366;2023-05-16T03:04:26;13.95;;;9.23;;
20431;SDS011;10375;49.136;10.366;2023-05-16T03:06:53;10.63;;;8.10;;
20431;SDS011;10375;49.136;10.366;2023-05-16T03:09:20;14.18;;;9.13;;
20431;SDS011;10375;49.136;10.366;2023-05-16T03:11:47;12.03;;;9.17;;
20431;SDS011;10375;49.136;10.366;2023-05-16T03:14:14;13.68;;;9.82;;
20431;SDS011;10375;49.136;10.366;2023-05-16T03:16:42;11.88;;;9.45;;
20431;SDS011;10375;49.136;10.366;2023-05-16T03:19:09;12.30;;;9.90;;
20431;SDS011;10375;49.136;10.366;2023-05-16T03:21:37;11.23;;;9.23;;
20431;SDS011;10375;49.136;10.366;2023-05-16T03:24:04;12.70;;;10.10;;
20431;SDS011;10375;49.136;10.366;2023-05-16T03:26:31;12.63;;;9.50;;
20431;SDS011;10375;49.136;10.366;2023-05-16T03:28:58;12.30;;;9.43;;
20431;SDS011;10375;49.136;10.366;2023-05-16T03:31:25;12.00;;;9.50;;
20431;SDS011;10375;49.136;10.366;2023-05-16T03:33:52;9.60;;;8.60;;
20431;SDS011;10375;49.136;10.366;2023-05-16T03:36:20;8.85;;;7.68;;
20431;SDS011;10375;49.136;10.366;2023-05-16T03:38:49;12.90;;;9.70;;
20431;SDS011;10375;49.136;10.366;2023-05-16T03:41:16;17.07;;;9.93;;
20431;SDS011;10375;49.136;10.366;2023-05-16T03:43:44;21.63;;;10.80;;
20431;SDS011;10375;49.136;10.366;2023-05-16T03:46:11;16.52;;;11.38;;
20431;SDS011;10375;49.136;10.366;2023-05-16T03:48:38;15.13;;;9.68;;
20431;SDS011;10375;49.136;10.366;2023-05-16T03:51:05;17.00;;;9.05;;
20431;SDS011;10375;49.136;10.366;2023-05-16T03:53:32;11.83;;;8.70;;
20431;SDS011;10375;49.136;10.366;2023-05-16T03:55:59;13.45;;;8.55;;
20431;SDS011;10375;49.136;10.366;2023-05-16T03:58:26;20.67;;;9.70;;
20431;SDS011;10375;49.136;10.366;2023-05-16T04:00:53;36.42;;;11.27;;
20431;SDS011;10375;49.136;10.366;2023-05-16T04:03:20;18.00;;;12.07;;
20431;SDS011;10375;49.136;10.366;2023-05-16T04:05:54;20.97;;;12.00;;
20431;SDS011;10375;49.136;10.366;2023-05-16T04:08:21;16.67;;;10.63;;
20431;SDS011;10375;49.136;10.366;2023-05-16T04:10:48;15.93;;;10.18;;
20431;SDS011;10375;49.136;10.366;2023-05-16T04:13:16;14.25;;;10.00;;
20431;SDS011;10375;49.136;10.366;2023-05-16T04:15:43;16.50;;;9.93;;
20431;SDS011;10375;49.136;10.366;2023-05-16T04:18:10;16.83;;;11.05;;
20431;SDS011;10375;49.136;10.366;2023-05-16T04:20:38;25.90;;;11.15;;
20431;SDS011;10375;49.136;10.366;2023-05-16T04:23:05;43.20;;;12.38;;
20431;SDS011;10375;49.136;10.366;2023-05-16T04:25:32;13.30;;;11.05;;
20431;SDS011;10375;49.136;10.366;2023-05-16T04:27:59;17.15;;;11.13;;
20431;SDS011;10375;49.136;10.366;2023-05-16T04:30:26;14.77;;;10.18;;
20431;SDS011;10375;49.136;10.366;2023-05-16T04:32:53;16.55;;;10.15;;
20431;SDS011;10375;49.136;10.366;2023-05-16T04:35:22;15.80;;;9.95;;
20431;SDS011;10375;49.136;10.366;2023-05-16T04:37:50;23.20;;;10.60;;
20431;SDS011;10375;49.136;10.366;2023-05-16T04:40:19;14.15;;;10.52;;
20431;SDS011;10375;49.136;10.366;2023-05-16T04:42:46;19.52;;;10.80;;
20431;SDS011;10375;49.136;10.366;2023-05-16T04:45:13;14.77;;;11.50;;
20431;SDS011;10375;49.136;10.366;2023-05-16T04:47:40;13.48;;;11.40;;
20431;SDS011;10375;49.136;10.366;2023-05-16T04:50:08;13.82;;;10.57;;
20431;SDS011;10375;49.136;10.366;2023-05-16T04:52:35;11.73;;;9.35;;
20431;SDS011;10375;49.136;10.366;2023-05-16T04:55:03;19.80;;;9.93;;
20431;SDS011;10375;49.136;10.366;2023-05-16T04:57:31;12.85;;;9.98;;
20431;SDS011;10375;49.136;10.366;2023-05-16T04:59:58;15.80;;;9.98;;
20431;SDS011;10375;49.136;10.366;2023-05-16T05:02:25;12.55;;;10.40;;
20431;SDS011;10375;49.136;10.366;2023-05-16T05:04:52;16.25;;;10.60;;
20431;SDS011;10375;49.136;10.366;2023-05-16T05:07:20;12.57;;;10.48;;
20431;SDS011;10375;49.136;10.366;2023-05-16T05:09:47;14.93;;;12.00;;
20431;SDS011;10375;49.136;10.366;2023-05-16T05:12:14;19.67;;;11.75;;
20431;SDS011;10375;49.136;10.366;2023-05-16T05:14:41;15.43;;;11.57;;
20431;SDS011;10375;49.136;10.366;2023-05-16T05:17:08;24.20;;;11.85;;
20431;SDS011;10375;49.136;10.366;2023-05-16T05:19:35;20.48;;;12.38;;
20431;SDS011;10375;49.136;10.366;2023-05-16T05:22:02;22.35;;;11.57;;
20431;SDS011;10375;49.136;10.366;2023-05-16T05:24:29;18.52;;;11.38;;
20431;SDS011;10375;49.136;10.366;2023-05-16T05:26:56;19.40;;;11.68;;
20431;SDS011;10375;49.136;10.366;2023-05-16T05:29:23;17.98;;;12.10;;
20431;SDS011;10375;49.136;10.366;2023-05-16T05:31:50;16.17;;;11.18;;
20431;SDS011;10375;49.136;10.366;2023-05-16T05:34:17;16.08;;;12.40;;
20431;SDS011;10375;49.136;10.366;2023-05-16T05:36:44;13.82;;;11.40;;
20431;SDS011;10375;49.136;10.366;2023-05-16T05:39:11;18.42;;;11.85;;
20431;SDS011;10375;49.136;10.366;2023-05-16T05:41:38;13.85;;;11.82;;
20431;SDS011;10375;49.136;10.366;2023-05-16T05:44:06;13.30;;;11.80;;
20431;SDS011;10375;49.136;10.366;2023-05-16T05:46:33;23.70;;;12.00;;
20431;SDS011;10375;49.136;10.366;2023-05-16T05:49:00;14.05;;;11.95;;
20431;SDS011;10375;49.136;10.366;2023-05-16T05:51:28;24.42;;;11.32;;
20431;SDS011;10375;49.136;10.366;2023-05-16T05:53:55;14.10;;;11.85;;
20431;SDS011;10375;49.136;10.366;2023-05-16T05:56:22;14.68;;;10.55;;
20431;SDS011;10375;49.136;10.366;2023-05-16T05:58:50;15.93;;;10.63;;
20431;SDS011;10375;49.136;10.366;2023-05-16T06:01:17;17.70;;;11.68;;
20431;SDS011;10375;49.136;10.366;2023-05-16T06:03:46;14.98;;;12.00;;
20431;SDS011;10375;49.136;10.366;2023-05-16T06:06:13;14.27;;;11.38;;
20431;SDS011;10375;49.136;10.366;2023-05-16T06:08:40;11.85;;;9.73;;
20431;SDS011;10375;49.136;10.366;2023-05-16T06:11:08;10.85;;;8.32;;
20431;SDS011;10375;49.136;10.366;2023-05-16T06:13:35;13.65;;;7.68;;
20431;SDS011;10375;49.136;10.366;2023-05-16T06:16:02;13.52;;;7.80;;
20431;SDS011;10375;49.136;10.366;2023-05-16T06:18:29;8.75;;;7.38;;
20431;SDS011;10375;49.136;10.366;2023-05-16T06:20:56;9.35;;;7.47;;
20431;SDS011;10375;49.136;10.366;2023-05-16T06:23:24;50.95;;;8.25;;
20431;SDS011;10375;49.136;10.366;2023-05-16T06:25:51;50.08;;;9.57;;
20431;SDS011;10375;49.136;10.366;2023-05-16T06:28:18;15.05;;;6.85;;
20431;SDS011;10375;49.136;10.366;2023-05-16T06:30:45;11.35;;;6.90;;
20431;SDS011;10375;49.136;10.366;2023-05-16T06:33:13;9.82;;;6.78;;
20431;SDS011;10375;49.136;10.366;2023-05-16T06:35:41;7.43;;;6.72;;
20431;SDS011;10375;49.136;10.366;2023-05-16T06:38:08;10.95;;;7.95;;
20431;SDS011;10375;49.136;10.366;2023-05-16T06:40:38;13.38;;;7.05;;
20431;SDS011;10375;49.136;10.366;2023-05-16T06:43:06;7.97;;;6.82;;
20431;SDS011;10375;49.136;10.366;2023-05-16T06:45:34;8.27;;;6.20;;
20431;SDS011;10375;49.136;10.366;2023-05-16T06:48:02;9.90;;;7.13;;
20431;SDS011;10375;49.136;10.366;2023-05-16T06:50:30;14.15;;;6.65;;
20431;SDS011;10375;49.136;10.366;2023-05-16T06:52:58;29.17;;;7.63;;
20431;SDS011;10375;49.136;10.366;2023-05-16T06:55:26;9.48;;;6.68;;
20431;SDS011;10375;49.136;10.366;2023-05-16T06:57:54;8.55;;;7.00;;
20431;SDS011;10375;49.136;10.366;2023-05-16T07:00:21;10.82;;;7.45;;
20431;SDS011;10375;49.136;10.366;2023-05-16T07:02:48;16.50;;;6.57;;
20431;SDS011;10375;49.136;10.366;2023-05-16T07:05:16;11.55;;;7.15;;
20431;SDS011;10375;49.136;10.366;2023-05-16T07:07:43;9.90;;;6.40;;
20431;SDS011;10375;49.136;10.366;2023-05-16T07:10:11;8.65;;;7.10;;
20431;SDS011;10375;49.136;10.366;2023-05-16T07:12:40;8.32;;;7.00;;
20431;SDS011;10375;49.136;10.366;2023-05-16T07:15:08;58.28;;;10.05;;
20431;SDS011;10375;49.136;10.366;2023-05-16T07:17:36;10.95;;;7.65;;
20431;SDS011;10375;49.136;10.366;2023-05-16T07:20:04;9.57;;;7.40;;
20431;SDS011;10375;49.136;10.366;2023-05-16T07:22:32;8.50;;;7.70;;
20431;SDS011;10375;49.136;10.366;2023-05-16T07:24:59;12.45;;;8.18;;
20431;SDS011;10375;49.136;10.366;2023-05-16T07:27:27;11.02;;;8.75;;
20431;SDS011;10375;49.136;10.366;2023-05-16T07:29:55;12.88;;;8.00;;
20431;SDS011;10375;49.136;10.366;2023-05-16T07:32:22;22.95;;;9.20;;
20431;SDS011;10375;49.136;10.366;2023-05-16T07:34:50;14.80;;;8.93;;
20431;SDS011;10375;49.136;10.366;2023-05-16T07:37:17;15.32;;;8.70;;
20431;SDS011;10375;49.136;10.366;2023-05-16T07:39:46;10.30;;;9.02;;
20431;SDS011;10375;49.136;10.366;2023-05-16T07:42:13;20.10;;;9.23;;
20431;SDS011;10375;49.136;10.366;2023-05-16T07:44:40;15.30;;;9.25;;
20431;SDS011;10375;49.136;10.366;2023-05-16T07:47:07;10.60;;;8.88;;
20431;SDS011;10375;49.136;10.366;2023-05-16T07:49:34;11.85;;;9.50;;
20431;SDS011;10375;49.136;10.366;2023-05-16T07:52:01;13.55;;;9.70;;
20431;SDS011;10375;49.136;10.366;2023-05-16T07:54:29;14.77;;;10.32;;
20431;SDS011;10375;49.136;10.366;2023-05-16T07:56:59;10.93;;;9.23;;
20431;SDS011;10375;49.136;10.366;2023-05-16T07:59:26;10.77;;;9.32;;
20431;SDS011;10375;49.136;10.366;2023-05-16T08:01:54;11.75;;;9.07;;
20431;SDS011;10375;49.136;10.366;2023-05-16T08:04:22;10.77;;;9.68;;
20431;SDS011;10375;49.136;10.366;2023-05-16T08:06:49;11.55;;;9.00;;
20431;SDS011;10375;49.136;10.366;2023-05-16T08:09:16;11.85;;;8.77;;
20431;SDS011;10375;49.136;10.366;2023-05-16T08:11:44;11.02;;;9.52;;
20431;SDS011;10375;49.136;10.366;2023-05-16T08:14:12;10.55;;;9.45;;
20431;SDS011;10375;49.136;10.366;2023-05-16T08:16:39;12.20;;;10.77;;
20431;SDS011;10375;49.136;10.366;2023-05-16T08:19:06;12.32;;;10.77;;
20431;SDS011;10375;49.136;10.366;2023-05-16T08:21:34;10.80;;;9.68;;
20431;SDS011;10375;49.136;10.366;2023-05-16T08:24:01;13.93;;;11.77;;
20431;SDS011;10375;49.136;10.366;2023-05-16T08:26:31;13.88;;;11.38;;
20431;SDS011;10375;49.136;10.366;2023-05-16T08:28:58;16.95;;;10.85;;
20431;SDS011;10375;49.136;10.366;2023-05-16T08:31:25;12.65;;;11.25;;
20431;SDS011;10375;49.136;10.366;2023-05-16T08:33:52;12.10;;;10.70;;
20431;SDS011;10375;49.136;10.366;2023-05-16T08:36:19;12.02;;;9.95;;
20431;SDS011;10375;49.136;10.366;2023-05-16T08:38:48;13.45;;;10.13;;
20431;SDS011;10375;49.136;10.366;2023-05-16T08:41:16;15.02;;;11.05;;
20431;SDS011;10375;49.136;10.366;2023-05-16T08:43:43;12.70;;;9.90;;
20431;SDS011;10375;49.136;10.366;2023-05-16T08:46:10;14.13;;;10.20;;
20431;SDS011;10375;49.136;10.366;2023-05-16T08:48:38;12.98;;;9.77;;
20431;SDS011;10375;49.136;10.366;2023-05-16T08:51:08;12.13;;;9.18;;
20431;SDS011;10375;49.136;10.366;2023-05-16T08:53:42;11.88;;;10.13;;
20431;SDS011;10375;49.136;10.366;2023-05-16T08:56:14;13.75;;;10.05;;
20431;SDS011;10375;49.136;10.366;2023-05-16T08:58:43;12.75;;;10.20;;
20431;SDS011;10375;49.136;10.366;2023-05-16T09:01:11;15.45;;;10.15;;
20431;SDS011;10375;49.136;10.366;2023-05-16T09:03:38;16.10;;;10.23;;
20431;SDS011;10375;49.136;10.366;2023-05-16T09:06:06;13.23;;;10.02;;
20431;SDS011;10375;49.136;10.366;2023-05-16T09:08:33;12.82;;;10.20;;
20431;SDS011;10375;49.136;10.366;2023-05-16T09:11:01;15.05;;;10.02;;
20431;SDS011;10375;49.136;10.366;2023-05-16T09:13:29;14.00;;;10.88;;
20431;SDS011;10375;49.136;10.366;2023-05-16T09:16:09;16.33;;;10.05;;
20431;SDS011;10375;49.136;10.366;2023-05-16T09:18:41;12.15;;;9.63;;
20431;SDS011;10375;49.136;10.366;2023-05-16T09:21:11;13.27;;;10.15;;
20431;SDS011;10375;49.136;10.366;2023-05-16T09:23:39;13.82;;;9.55;;
20431;SDS011;10375;49.136;10.366;2023-05-16T09:26:08;17.48;;;9.70;;
20431;SDS011;10375;49.136;10.366;2023-05-16T09:28:39;13.25;;;10.40;;
20431;SDS011;10375;49.136;10.366;2023-05-16T09:31:22;13.20;;;10.00;;
20431;SDS011;10375;49.136;10.366;2023-05-16T09:33:56;10.43;;;9.25;;
20431;SDS011;10375;49.136;10.366;2023-05-16T09:36:24;10.68;;;9.40;;
20431;SDS011;10375;49.136;10.366;2023-05-16T09:38:51;12.88;;;9.52;;
20431;SDS011;10375;49.136;10.366;2023-05-16T09:41:20;11.00;;;8.88;;
20431;SDS011;10375;49.136;10.366;2023-05-16T09:43:48;16.17;;;9.30;;
20431;SDS011;10375;49.136;10.366;2023-05-16T09:46:15;11.93;;;9.15;;
20431;SDS011;10375;49.136;10.366;2023-05-16T09:48:46;14.23;;;10.50;;
20431;SDS011;10375;49.136;10.366;2023-05-16T09:51:13;15.00;;;9.75;;
20431;SDS011;10375;49.136;10.366;2023-05-16T09:53:41;19.63;;;11.52;;
20431;SDS011;10375;49.136;10.366;2023-05-16T09:56:09;10.85;;;9.75;;
20431;SDS011;10375;49.136;10.366;2023-05-16T09:58:38;11.88;;;10.13;;
20431;SDS011;10375;49.136;10.366;2023-05-16T10:01:07;13.68;;;10.00;;
20431;SDS011;10375;49.136;10.366;2023-05-16T10:03:36;12.98;;;9.65;;
20431;SDS011;10375;49.136;10.366;2023-05-16T10:06:04;11.65;;;10.05;;
20431;SDS011;10375;49.136;10.366;2023-05-16T10:08:33;15.00;;;10.32;;
20431;SDS011;10375;49.136;10.366;2023-05-16T10:11:02;16.23;;;9.82;;
20431;SDS011;10375;49.136;10.366;2023-05-16T10:13:34;13.98;;;11.10;;
20431;SDS011;10375;49.136;10.366;2023-05-16T10:16:06;11.02;;;9.57;;
20431;SDS011;10375;49.136;10.366;2023-05-16T10:18:37;13.98;;;10.25;;
20431;SDS011;10375;49.136;10.366;2023-05-16T10:21:06;11.23;;;9.85;;
20431;SDS011;10375;49.136;10.366;2023-05-16T10:23:37;15.98;;;10.77;;
20431;SDS011;10375;49.136;10.366;2023-05-16T10:26:08;12.02;;;10.70;;
20431;SDS011;10375;49.136;10.366;2023-05-16T10:28:36;13.32;;;10.48;;
20431;SDS011;10375;49.136;10.366;2023-05-16T10:31:05;14.00;;;9.55;;
20431;SDS011;10375;49.136;10.366;2023-05-16T10:33:34;11.63;;;10.20;;
20431;SDS011;10375;49.136;10.366;2023-05-16T10:36:02;13.55;;;9.60;;
20431;SDS011;10375;49.136;10.366;2023-05-16T10:38:31;11.80;;;10.10;;
20431;SDS011;10375;49.136;10.366;2023-05-16T10:41:00;14.95;;;10.70;;
20431;SDS011;10375;49.136;10.366;2023-05-16T10:43:30;13.05;;;9.43;;
20431;SDS011;10375;49.136;10.366;2023-05-16T10:46:02;13.88;;;9.65;;
20431;SDS011;10375;49.136;10.366;2023-05-16T10:48:37;16.98;;;9.57;;
20431;SDS011;10375;49.136;10.366;2023-05-16T10:53:52;11.55;;;9.70;;
20431;SDS011;10375;49.136;10.366;2023-05-16T10:56:23;12.55;;;9.52;;
20431;SDS011;10375;49.136;10.366;2023-05-16T10:58:52;10.68;;;8.95;;
20431;SDS011;10375;49.136;10.366;2023-05-16T11:01:23;13.25;;;9.00;;
20431;SDS011;10375;49.136;10.366;2023-05-16T11:17:00;8.35;;;7.38;;
20431;SDS011;10375;49.136;10.366;2023-05-16T11:24:37;9.60;;;8.02;;
20431;SDS011;10375;49.136;10.366;2023-05-16T11:27:05;27.98;;;7.93;;
20431;SDS011;10375;49.136;10.366;2023-05-16T11:29:33;8.80;;;7.60;;
20431;SDS011;10375;49.136;10.366;2023-05-16T11:32:04;9.88;;;7.03;;
20431;SDS011;10375;49.136;10.366;2023-05-16T11:34:34;12.50;;;6.35;;
20431;SDS011;10375;49.136;10.366;2023-05-16T11:37:05;8.90;;;6.75;;
20431;SDS011;10375;49.136;10.366;2023-05-16T11:39:32;12.70;;;6.93;;
20431;SDS011;10375;49.136;10.366;2023-05-16T11:42:00;7.25;;;6.45;;
20431;SDS011;10375;49.136;10.366;2023-05-16T11:44:27;5.75;;;5.10;;
20431;SDS011;10375;49.136;10.366;2023-05-16T11:46:54;10.30;;;6.15;;
20431;SDS011;10375;49.136;10.366;2023-05-16T11:49:22;11.13;;;5.80;;
20431;SDS011;10375;49.136;10.366;2023-05-16T11:51:49;8.50;;;5.90;;
20431;SDS011;10375;49.136;10.366;2023-05-16T11:54:19;11.00;;;5.72;;
20431;SDS011;10375;49.136;10.366;2023-05-16T11:56:47;7.68;;;5.97;;
20431;SDS011;10375;49.136;10.366;2023-05-16T11:59:15;8.93;;;6.80;;
20431;SDS011;10375;49.136;10.366;2023-05-16T12:01:43;9.45;;;6.68;;
20431;SDS011;10375;49.136;10.366;2023-05-16T12:04:11;8.15;;;6.63;;
20431;SDS011;10375;49.136;10.366;2023-05-16T12:06:40;6.95;;;6.25;;
20431;SDS011;10375;49.136;10.366;2023-05-16T12:09:11;12.18;;;6.43;;
20431;SDS011;10375;49.136;10.366;2023-05-16T12:11:43;8.48;;;6.53;;
20431;SDS011;10375;49.136;10.366;2023-05-16T12:14:11;6.70;;;5.97;;
20431;SDS011;10375;49.136;10.366;2023-05-16T12:16:39;9.82;;;6.00;;
20431;SDS011;10375;49.136;10.366;2023-05-16T12:19:11;8.52;;;7.15;;
20431;SDS011;10375;49.136;10.366;2023-05-16T12:21:39;11.05;;;6.88;;
20431;SDS011;10375;49.136;10.366;2023-05-16T12:24:10;9.20;;;6.10;;
20431;SDS011;10375;49.136;10.366;2023-05-16T12:26:38;7.93;;;6.03;;
20431;SDS011;10375;49.136;10.366;2023-05-16T12:29:08;11.77;;;7.63;;
20431;SDS011;10375;49.136;10.366;2023-05-16T12:31:39;8.05;;;6.43;;
20431;SDS011;10375;49.136;10.366;2023-05-16T12:34:14;7.78;;;6.75;;
20431;SDS011;10375;49.136;10.366;2023-05-16T12:36:51;12.23;;;7.63;;
20431;SDS011;10375;49.136;10.366;2023-05-16T12:39:19;11.32;;;7.22;;
20431;SDS011;10375;49.136;10.366;2023-05-16T12:41:46;7.00;;;6.30;;
20431;SDS011;10375;49.136;10.366;2023-05-16T12:44:15;8.10;;;6.25;;
20431;SDS011;10375;49.136;10.366;2023-05-16T12:46:50;8.38;;;6.65;;
20431;SDS011;10375;49.136;10.366;2023-05-16T12:49:22;109.65;;;10.38;;
20431;SDS011;10375;49.136;10.366;2023-05-16T12:51:54;7.93;;;6.15;;
20431;SDS011;10375;49.136;10.366;2023-05-16T12:54:23;7.40;;;5.57;;
20431;SDS011;10375;49.136;10.366;2023-05-16T12:56:50;6.72;;;5.88;;
20431;SDS011;10375;49.136;10.366;2023-05-16T12:59:17;6.88;;;5.90;;
20431;SDS011;10375;49.136;10.366;2023-05-16T13:01:46;7.80;;;5.93;;
20431;SDS011;10375;49.136;10.366;2023-05-16T13:04:13;9.68;;;6.53;;
20431;SDS011;10375;49.136;10.366;2023-05-16T13:06:45;145.77;;;15.45;;
20431;SDS011;10375;49.136;10.366;2023-05-16T13:09:25;11.15;;;5.93;;
20431;SDS011;10375;49.136;10.366;2023-05-16T13:11:58;9.60;;;5.47;;
20431;SDS011;10375;49.136;10.366;2023-05-16T13:14:25;9.00;;;5.65;;
20431;SDS011;10375;49.136;10.366;2023-05-16T13:16:52;7.35;;;5.10;;
20431;SDS011;10375;49.136;10.366;2023-05-16T13:19:19;7.53;;;5.20;;
20431;SDS011;10375;49.136;10.366;2023-05-16T13:21:48;9.10;;;4.95;;
20431;SDS011;10375;49.136;10.366;2023-05-16T13:24:15;6.00;;;4.65;;
20431;SDS011;10375;49.136;10.366;2023-05-16T13:26:42;5.35;;;4.35;;
20431;SDS011;10375;49.136;10.366;2023-05-16T13:29:10;5.07;;;4.57;;
20431;SDS011;10375;49.136;10.366;2023-05-16T13:31:37;7.55;;;4.85;;
20431;SDS011;10375;49.136;10.366;2023-05-16T13:34:05;7.90;;;5.00;;
20431;SDS011;10375;49.136;10.366;2023-05-16T13:36:32;7.10;;;4.97;;
20431;SDS011;10375;49.136;10.366;2023-05-16T13:39:19;5.00;;;4.22;;
20431;SDS011;10375;49.136;10.366;2023-05-16T13:41:47;6.80;;;4.53;;
20431;SDS011;10375;49.136;10.366;2023-05-16T13:44:14;6.65;;;4.05;;
20431;SDS011;10375;49.136;10.366;2023-05-16T13:46:42;6.00;;;4.43;;
20431;SDS011;10375;49.136;10.366;2023-05-16T13:49:10;5.50;;;4.25;;
20431;SDS011;10375;49.136;10.366;2023-05-16T13:51:37;6.05;;;4.05;;
20431;SDS011;10375;49.136;10.366;2023-05-16T13:54:04;7.40;;;4.20;;
20431;SDS011;10375;49.136;10.366;2023-05-16T13:56:31;4.30;;;3.38;;
20431;SDS011;10375;49.136;10.366;2023-05-16T13:58:58;4.32;;;3.60;;
20431;SDS011;10375;49.136;10.366;2023-05-16T14:01:31;4.40;;;2.83;;
20431;SDS011;10375;49.136;10.366;2023-05-16T14:03:59;2.47;;;2.08;;
20431;SDS011;10375;49.136;10.366;2023-05-16T14:06:26;5.68;;;2.60;;
20431;SDS011;10375;49.136;10.366;2023-05-16T14:08:54;3.75;;;2.90;;
20431;SDS011;10375;49.136;10.366;2023-05-16T14:11:21;3.28;;;2.83;;
20431;SDS011;10375;49.136;10.366;2023-05-16T14:13:55;4.82;;;2.78;;
20431;SDS011;10375;49.136;10.366;2023-05-16T14:16:22;5.82;;;2.53;;
20431;SDS011;10375;49.136;10.366;2023-05-16T14:18:50;4.15;;;3.25;;
20431;SDS011;10375;49.136;10.366;2023-05-16T14:21:17;10.98;;;2.75;;
20431;SDS011;10375;49.136;10.366;2023-05-16T14:23:45;3.50;;;2.95;;
20431;SDS011;10375;49.136;10.366;2023-05-16T14:26:12;6.78;;;3.72;;
20431;SDS011;10375;49.136;10.366;2023-05-16T14:28:39;12.95;;;4.05;;
20431;SDS011;10375;49.136;10.366;2023-05-16T14:31:07;56.95;;;4.95;;
20431;SDS011;10375;49.136;10.366;2023-05-16T14:33:34;114.30;;;11.70;;
20431;SDS011;10375;49.136;10.366;2023-05-16T14:36:01;3.67;;;3.35;;
20431;SDS011;10375;49.136;10.366;2023-05-16T14:38:32;9.90;;;3.00;;
20431;SDS011;10375;49.136;10.366;2023-05-16T14:40:59;4.97;;;3.42;;
20431;SDS011;10375;49.136;10.366;2023-05-16T14:43:26;5.13;;;3.40;;
20431;SDS011;10375;49.136;10.366;2023-05-16T14:45:53;5.85;;;3.58;;
20431;SDS011;10375;49.136;10.366;2023-05-16T14:48:20;3.53;;;3.08;;
20431;SDS011;10375;49.136;10.366;2023-05-16T14:50:48;4.93;;;3.50;;
20431;SDS011;10375;49.136;10.366;2023-05-16T14:53:15;5.75;;;5.00;;
20431;SDS011;10375;49.136;10.366;2023-05-16T14:55:42;7.55;;;3.65;;
20431;SDS011;10375;49.136;10.366;2023-05-16T14:58:10;5.20;;;4.18;;
20431;SDS011;10375;49.136;10.366;2023-05-16T15:00:37;3.80;;;3.20;;
20431;SDS011;10375;49.136;10.366;2023-05-16T15:03:04;14.98;;;3.45;;
20431;SDS011;10375;49.136;10.366;2023-05-16T15:05:31;5.38;;;3.63;;
20431;SDS011;10375;49.136;10.366;2023-05-16T15:07:59;4.78;;;3.60;;